Big Sky, Montana
Current Conditions -  °F | °C
As of 5:56 AM on Friday 24 Oct 2014 (Local Time) from KBZN Reporting Station
Overcast Overcast  
Wind Chill: 52°   Ceiling: 8000
Heat Index: 52°   Visibility: 10mi
Dew Point: 37°   Wind: 8mph
Humidity: 57%   Direction: 300°WNW
Pressure: 30.01"   Gusts: NA
Location:  45.29°N, 111.3°W
Report Text: KBZN 241156Z 30007KT 10SM OVC080 11/03 A3001 RMK AO2 SLP142 T01110028 10139 20106 53008
Loading
Personal Weather Stations






























Interactive Weather Map
Tropical Storm Tracking
New forecast layout! Learn more

10-Day Weather Forecast

Advertisements
Track Severe Weather on mobile